Terminal Aerodrome Forecast
Issued by NWS

Home | Current Version | Previous Version | Text Only | Print | Product List | Glossary On
Versions: 1 2 3 4 5 6 7 8 9 10 11 12 13 14 15 16 17 18
000
FTUS43 KMPX 121700
TAFRNH
TAF
KRNH 121738Z 1218/1318 VRB03KT 5SM BR VCSH BKN008 OVC100
     FM121930 27004KT P6SM VCSH SCT012 OVC100
      TEMPO 1220/1223 4SM -SHRA OVC020
     FM130000 28007KT P6SM SCT050 BKN100
     FM130800 30003KT 4SM BR SKC
     FM131200 32007KT P6SM SKC=

USA.gov is the U.S. government's official web portal to all federal, state and local government web resources and services.